Time;durP1;ratioP1;P1;durP2;ratioP2;P2;SDS_P1;SDS_P2;PMS_P1;PMS_P2;Temp;Humidity;BMP_temperature;BMP_pressure;BME280_temperature;BME280_humidity;BME280_pressure;Samples;Min_cycle;Max_cycle;Signal;HPM_P1;HPM_P2
2022/06/28 05:01:59;;;;;;;3.42;2.10;;;17.60;99.90;;;;;;5691097;23;20067;-82
2022/06/28 05:04:25;;;;;;;2.90;1.98;;;17.70;99.90;;;;;;4907615;29;20373;-83
2022/06/28 05:07:10;;;;;;;7.63;2.35;;;17.70;99.90;;;;;;4927219;29;20028;-84
2022/06/28 05:09:38;;;;;;;3.90;2.13;;;17.70;99.90;;;;;;4926648;29;20051;-82
2022/06/28 05:12:05;;;;;;;3.80;3.05;;;17.80;99.90;;;;;;4927616;29;20213;-83
2022/06/28 05:14:36;;;;;;;4.03;2.80;;;17.80;99.90;;;;;;4913777;29;20034;-82
2022/06/28 05:17:02;;;;;;;5.22;3.17;;;17.80;99.90;;;;;;4927080;29;20048;-81
2022/06/28 05:19:33;;;;;;;5.32;3.75;;;17.90;99.90;;;;;;4927876;29;20027;-80
2022/06/28 05:22:00;;;;;;;6.63;3.63;;;17.90;99.90;;;;;;4926813;29;20314;-85
2022/06/28 05:24:26;;;;;;;6.13;3.78;;;17.90;99.90;;;;;;4911973;29;20035;-81
2022/06/28 05:26:57;;;;;;;5.30;3.60;;;18.00;99.90;;;;;;4911865;29;20035;-80
2022/06/28 05:29:24;;;;;;;4.53;3.45;;;18.10;99.90;;;;;;4911729;29;20376;-81
2022/06/28 05:31:49;;;;;;;5.68;3.55;;;18.20;99.90;;;;;;4926609;29;20056;-80
2022/06/28 05:34:15;;;;;;;5.15;3.85;;;18.30;99.90;;;;;;4929952;29;20019;-81
2022/06/28 05:36:41;;;;;;;6.30;3.70;;;18.40;99.90;;;;;;4911029;29;20031;-80
2022/06/28 05:39:09;;;;;;;7.07;4.25;;;18.50;99.90;;;;;;4911864;29;20051;-80
2022/06/28 05:41:35;;;;;;;6.43;3.50;;;18.60;99.90;;;;;;4927537;29;20217;-82
2022/06/28 05:44:02;;;;;;;5.30;3.38;;;18.70;99.90;;;;;;4927298;29;20129;-82
2022/06/28 05:46:28;;;;;;;4.72;3.88;;;18.80;99.90;;;;;;4911249;29;20044;-80
2022/06/28 05:48:54;;;;;;;4.97;4.07;;;18.80;99.90;;;;;;4925901;29;20217;-81
2022/06/28 05:51:20;;;;;;;5.53;4.15;;;18.90;99.90;;;;;;4935332;29;20027;-80
2022/06/28 05:53:46;;;;;;;4.47;3.45;;;19.10;99.90;;;;;;4930498;29;20089;-79
2022/06/28 05:56:12;;;;;;;8.32;3.92;;;19.20;99.90;;;;;;4914706;29;20023;-79
2022/06/28 05:58:38;;;;;;;5.18;3.38;;;19.40;99.90;;;;;;4928037;29;20051;-81
2022/06/28 06:01:04;;;;;;;4.82;3.70;;;19.50;99.90;;;;;;4912854;29;20036;-82
2022/06/28 06:03:32;;;;;;;8.50;4.28;;;19.60;99.90;;;;;;4922808;29;20055;-82
2022/06/28 06:05:58;;;;;;;9.23;3.75;;;19.70;99.90;;;;;;4914701;29;20280;-82
2022/06/28 06:08:24;;;;;;;5.97;4.13;;;19.70;99.90;;;;;;4941885;29;20031;-82
2022/06/28 06:10:50;;;;;;;6.38;4.25;;;19.80;99.90;;;;;;4925120;29;20047;-80
2022/06/28 06:13:16;;;;;;;5.13;3.78;;;19.90;99.90;;;;;;4920649;29;20031;-80
2022/06/28 06:15:42;;;;;;;4.97;4.45;;;20.00;99.90;;;;;;4918644;29;20039;-82
2022/06/28 06:18:07;;;;;;;6.88;4.50;;;20.00;99.90;;;;;;4938089;29;20031;-82
2022/06/28 06:20:33;;;;;;;6.15;4.18;;;20.00;99.90;;;;;;4918753;29;20024;-82
2022/06/28 06:23:00;;;;;;;6.75;4.00;;;20.00;99.90;;;;;;4932779;29;20314;-81
2022/06/28 06:25:46;;;;;;;7.13;4.43;;;20.10;99.90;;;;;;4919469;29;20040;-81
2022/06/28 06:28:11;;;;;;;6.00;3.60;;;20.20;99.90;;;;;;4899304;29;20122;-81
2022/06/28 06:30:37;;;;;;;4.88;3.80;;;20.30;99.90;;;;;;4945402;29;20039;-80
2022/06/28 06:33:11;;;;;;;4.07;3.35;;;20.50;99.90;;;;;;4928648;29;20071;-81
2022/06/28 06:35:37;;;;;;;8.90;3.50;;;20.60;99.90;;;;;;4928812;29;20047;-81
2022/06/28 06:38:03;;;;;;;5.30;3.00;;;20.70;99.90;;;;;;4928171;29;20031;-81
2022/06/28 06:40:30;;;;;;;7.40;3.28;;;20.90;99.90;;;;;;4928006;29;20031;-80
2022/06/28 06:42:57;;;;;;;4.80;3.45;;;21.10;99.90;;;;;;4945060;29;20404;-80
2022/06/28 06:45:23;;;;;;;5.93;3.15;;;21.20;99.90;;;;;;4943400;29;20066;-82
2022/06/28 06:47:49;;;;;;;5.07;4.18;;;21.20;99.90;;;;;;4912142;29;20063;-80
2022/06/28 06:50:14;;;;;;;4.88;3.28;;;21.20;99.90;;;;;;4960238;29;20043;-81
2022/06/28 06:52:40;;;;;;;6.57;3.65;;;21.20;99.90;;;;;;4928203;29;20035;-81
2022/06/28 06:55:07;;;;;;;5.68;3.70;;;21.40;99.90;;;;;;4944354;29;20020;-80
2022/06/28 06:57:33;;;;;;;6.90;3.47;;;21.50;99.90;;;;;;4947839;29;20072;-81
2022/06/28 06:59:59;;;;;;;6.45;4.43;;;21.40;99.90;;;;;;4923698;29;20071;-80
2022/06/28 07:02:25;;;;;;;7.80;4.30;;;21.40;99.90;;;;;;4935358;29;20048;-81
2022/06/28 07:04:55;;;;;;;5.13;3.35;;;21.30;99.90;;;;;;4922468;29;20036;-81
2022/06/28 07:07:23;;;;;;;8.32;4.60;;;21.10;99.90;;;;;;4923212;29;20043;-81
2022/06/28 07:09:50;;;;;;;;;;;20.90;99.90;;;;;;4913884;29;20046;-81
2022/06/28 07:12:16;;;;;;;5.38;3.95;;;20.70;99.90;;;;;;4937168;29;20226;-82
2022/06/28 07:14:42;;;;;;;6.50;4.28;;;20.50;99.90;;;;;;4912312;29;20024;-82
2022/06/28 07:17:08;;;;;;;6.50;4.32;;;20.30;99.90;;;;;;4911700;29;20261;-82
2022/06/28 07:19:33;;;;;;;6.78;4.10;;;20.20;99.90;;;;;;4928129;29;20062;-82
2022/06/28 07:21:59;;;;;;;5.63;4.25;;;20.00;99.90;;;;;;4919490;29;20020;-82
2022/06/28 07:24:26;;;;;;;7.10;4.30;;;19.80;99.90;;;;;;4929097;29;20038;-82
2022/06/28 07:26:52;;;;;;;8.70;4.90;;;19.70;99.90;;;;;;4927207;29;20032;-82
2022/06/28 07:29:18;;;;;;;7.15;5.25;;;19.70;99.90;;;;;;4912224;29;20016;-81
2022/06/28 07:31:44;;;;;;;7.38;5.43;;;19.70;99.90;;;;;;4907144;29;20233;-81
2022/06/28 07:34:11;;;;;;;7.10;5.20;;;19.80;99.90;;;;;;4927040;29;20063;-81
2022/06/28 07:36:37;;;;;;;8.10;5.03;;;19.90;99.90;;;;;;4927538;29;20034;-81
2022/06/28 07:39:03;;;;;;;6.07;5.47;;;20.00;99.90;;;;;;4911447;29;20024;-82
2022/06/28 07:41:30;;;;;;;6.28;5.10;;;20.00;99.90;;;;;;4944856;29;20418;-81
2022/06/28 07:44:14;;;;;;;5.82;4.57;;;20.00;99.90;;;;;;4944190;29;20043;-81
2022/06/28 07:46:40;;;;;;;6.28;4.95;;;20.20;99.90;;;;;;4926749;29;20036;-81
2022/06/28 07:49:06;;;;;;;9.07;5.15;;;20.30;99.90;;;;;;4926846;29;20204;-81
2022/06/28 07:54:18;;;;;;;7.18;4.13;;;20.70;99.90;;;;;;4927191;29;20052;-80
2022/06/28 07:56:52;;;;;;;5.50;3.88;;;21.00;99.90;;;;;;4926221;29;20023;-80
2022/06/28 07:59:18;;;;;;;5.10;4.25;;;21.40;99.90;;;;;;4927250;29;20321;-80
2022/06/28 08:01:44;;;;;;;4.20;3.80;;;21.70;99.90;;;;;;4909889;29;20046;-81
2022/06/28 08:04:20;;;;;;;4.65;3.28;;;22.00;99.90;;;;;;4926832;29;20034;-83
2022/06/28 08:06:47;;;;;;;6.70;3.70;;;22.60;99.90;;;;;;4910480;29;20028;-81
2022/06/28 08:09:13;;;;;;;5.30;3.55;;;22.90;99.90;;;;;;4911317;29;20227;-82
2022/06/28 08:11:39;;;;;;;4.45;3.42;;;22.90;99.60;;;;;;4927027;29;20024;-81
2022/06/28 08:14:11;;;;;;;5.03;3.50;;;23.10;99.80;;;;;;4910964;29;20078;-82
2022/06/28 08:16:40;;;;;;;5.25;3.42;;;23.10;99.50;;;;;;4926473;29;20345;-80
2022/06/28 08:19:06;;;;;;;5.25;3.50;;;23.00;99.10;;;;;;4911186;29;20328;-81
2022/06/28 08:21:34;;;;;;;4.43;3.08;;;23.00;98.80;;;;;;4927243;29;20022;-80
2022/06/28 08:24:00;;;;;;;4.78;3.47;;;23.00;99.00;;;;;;4911073;29;20039;-81
2022/06/28 08:26:26;;;;;;;4.40;3.65;;;23.00;98.90;;;;;;4927422;29;20375;-81
2022/06/28 08:28:52;;;;;;;5.65;2.95;;;22.90;98.50;;;;;;4910731;29;20103;-81
2022/06/28 08:31:17;;;;;;;4.55;3.50;;;22.80;98.40;;;;;;4926171;29;20087;-81
2022/06/28 08:33:43;;;;;;;4.63;3.42;;;23.00;98.30;;;;;;4943600;29;20030;-82
2022/06/28 08:36:09;;;;;;;4.65;3.35;;;23.00;98.10;;;;;;4943088;29;20456;-81
2022/06/28 08:38:34;;;;;;;3.13;2.67;;;23.20;98.10;;;;;;4926603;29;20027;-82
2022/06/28 08:41:03;;;;;;;4.50;2.47;;;23.40;97.60;;;;;;4926037;29;20028;-81
2022/06/28 08:43:31;;;;;;;;;;;23.50;97.00;;;;;;4927025;29;20043;-81
2022/06/28 08:45:57;;;;;;;3.60;2.80;;;23.40;97.00;;;;;;4908940;29;19950;-81
2022/06/28 08:48:30;;;;;;;4.40;2.55;;;23.40;97.30;;;;;;4909828;29;20047;-80
2022/06/28 08:50:57;;;;;;;4.18;2.55;;;23.10;97.20;;;;;;4925899;29;20036;-81
2022/06/28 08:53:23;;;;;;;3.40;2.38;;;23.10;97.30;;;;;;4910955;29;20035;-81
2022/06/28 08:55:51;;;;;;;2.78;2.38;;;23.20;97.00;;;;;;4926120;29;20163;-82
2022/06/28 08:58:17;;;;;;;3.50;2.60;;;23.10;96.70;;;;;;4923161;29;20020;-79
2022/06/28 09:00:43;;;;;;;3.85;2.65;;;23.10;97.20;;;;;;4924491;29;20111;-79
2022/06/28 09:03:09;;;;;;;5.60;2.67;;;23.10;96.90;;;;;;4943148;29;20130;-79
2022/06/28 09:05:35;;;;;;;2.78;1.92;;;23.20;96.70;;;;;;4906396;29;20043;-78
2022/06/28 09:08:00;;;;;;;2.90;2.00;;;23.50;96.60;;;;;;4909007;29;20036;-77
2022/06/28 09:10:27;;;;;;;5.03;1.80;;;23.80;96.40;;;;;;4910687;29;20032;-80
2022/06/28 09:13:10;;;;;;;3.20;1.80;;;24.20;95.50;;;;;;4894736;29;20132;-83
2022/06/28 09:16:01;;;;;;;5.22;1.67;;;24.60;94.80;;;;;;4926301;29;20059;-81
2022/06/28 09:18:47;;;;;;;5.78;2.22;;;25.00;93.60;;;;;;4928065;29;20091;-81
2022/06/28 09:21:17;;;;;;;5.03;1.83;;;24.80;94.20;;;;;;4927488;29;20063;-79
2022/06/28 09:23:46;;;;;;;2.55;1.80;;;24.60;94.10;;;;;;4910809;29;20035;-80
2022/06/28 09:26:20;;;;;;;4.85;1.77;;;24.50;93.70;;;;;;4910945;29;20028;-79
2022/06/28 09:28:48;;;;;;;5.55;2.75;;;24.80;93.40;;;;;;4910855;29;20352;-80
2022/06/28 09:31:26;;;;;;;5.10;2.30;;;25.00;92.90;;;;;;4910363;29;20443;-81
2022/06/28 09:34:05;;;;;;;2.83;1.40;;;25.20;92.50;;;;;;4922621;29;20066;-83
2022/06/28 09:36:54;;;;;;;4.78;1.88;;;25.00;92.00;;;;;;4929939;29;20063;-82
2022/06/28 09:39:21;;;;;;;4.78;2.15;;;25.00;92.50;;;;;;4914204;29;20067;-81
2022/06/28 09:41:49;;;;;;;3.60;1.77;;;24.70;92.90;;;;;;4945628;29;20015;-80
2022/06/28 09:44:17;;;;;;;3.47;1.50;;;24.60;92.80;;;;;;4946608;29;20034;-81
2022/06/28 09:46:44;;;;;;;2.08;1.42;;;24.60;92.70;;;;;;4945509;29;20043;-81
2022/06/28 09:49:10;;;;;;;3.05;1.45;;;24.60;92.30;;;;;;4929051;29;20073;-80
2022/06/28 09:51:37;;;;;;;5.15;1.58;;;24.70;92.90;;;;;;4928892;29;20124;-81
2022/06/28 09:54:09;;;;;;;3.25;1.55;;;24.70;92.30;;;;;;4945474;29;20027;-79
2022/06/28 09:56:41;;;;;;;3.03;1.50;;;24.60;92.40;;;;;;4929172;29;20019;-78
2022/06/28 09:59:08;;;;;;;3.30;1.50;;;24.80;91.90;;;;;;4945442;29;20028;-81
2022/06/28 10:01:35;;;;;;;2.63;1.50;;;24.80;91.70;;;;;;4945438;29;20087;-80
2022/06/28 10:04:02;;;;;;;3.75;1.13;;;25.10;91.60;;;;;;4928228;29;20060;-81
2022/06/28 10:06:28;;;;;;;2.50;1.40;;;25.60;90.80;;;;;;4915423;29;20036;-80
2022/06/28 10:08:54;;;;;;;2.75;1.10;;;25.80;90.90;;;;;;4926376;29;20024;-81
2022/06/28 10:11:20;;;;;;;3.33;1.38;;;25.80;89.60;;;;;;4927915;29;20048;-80
2022/06/28 10:16:57;;;;;;;2.83;1.45;;;25.50;90.60;;;;;;4909341;29;20044;-80
2022/06/28 10:19:26;;;;;;;2.58;1.45;;;25.60;90.60;;;;;;4909966;29;20294;-80
2022/06/28 10:21:52;;;;;;;3.55;1.30;;;26.20;90.30;;;;;;4878366;29;20043;-79
2022/06/28 10:24:18;;;;;;;4.88;1.50;;;26.40;89.00;;;;;;4909901;29;20036;-80
2022/06/28 10:26:46;;;;;;;2.17;1.20;;;26.70;88.90;;;;;;4932702;29;20019;-80
2022/06/28 10:29:14;;;;;;;2.92;1.08;;;26.90;87.20;;;;;;4910389;29;20028;-80
2022/06/28 10:31:42;;;;;;;6.43;1.20;;;27.10;86.80;;;;;;4909211;29;20112;-81
2022/06/28 10:34:30;;;;;;;3.97;1.15;;;27.20;86.60;;;;;;4926040;29;20092;-81
2022/06/28 10:36:57;;;;;;;2.87;1.10;;;27.10;87.50;;;;;;4912580;29;20101;-79
2022/06/28 10:39:25;;;;;;;2.63;1.42;;;26.80;85.60;;;;;;4926856;29;20424;-81
2022/06/28 10:42:05;;;;;;;2.47;1.55;;;26.90;87.80;;;;;;4925865;29;20027;-81
2022/06/28 10:44:31;;;;;;;2.25;1.23;;;26.80;85.30;;;;;;4909723;29;20080;-81
2022/06/28 10:47:05;;;;;;;2.50;1.10;;;27.30;85.00;;;;;;4925451;29;20139;-80
2022/06/28 10:49:45;;;;;;;3.92;1.50;;;27.40;83.70;;;;;;4926200;29;20099;-80
2022/06/28 10:52:16;;;;;;;2.72;0.90;;;27.30;84.60;;;;;;4925439;29;20133;-80
2022/06/28 10:55:04;;;;;;;2.88;1.00;;;27.50;84.40;;;;;;4909192;29;20036;-80
2022/06/28 10:57:34;;;;;;;3.72;1.17;;;27.60;83.30;;;;;;4908926;29;20084;-81
2022/06/28 11:00:05;;;;;;;3.30;1.08;;;27.80;83.90;;;;;;4908887;29;20198;-79
2022/06/28 11:02:49;;;;;;;2.90;1.00;;;27.70;82.80;;;;;;4913613;29;20052;-80
2022/06/28 11:05:17;;;;;;;3.22;1.30;;;28.10;82.50;;;;;;4909283;29;20373;-79
2022/06/28 11:07:59;;;;;;;3.42;1.02;;;28.30;82.80;;;;;;4914883;29;20016;-79
2022/06/28 11:10:26;;;;;;;1.75;0.80;;;28.30;81.00;;;;;;4915433;29;20032;-80
2022/06/28 11:12:52;;;;;;;5.03;0.90;;;28.40;80.90;;;;;;4943853;29;20012;-80
2022/06/28 11:15:29;;;;;;;1.88;0.85;;;28.60;81.00;;;;;;4927133;29;20050;-81
2022/06/28 11:17:56;;;;;;;2.80;0.90;;;28.70;80.20;;;;;;4927507;29;20052;-81
2022/06/28 11:20:27;;;;;;;5.03;1.10;;;28.60;80.50;;;;;;4927744;29;20036;-79
2022/06/28 11:22:54;;;;;;;3.28;0.98;;;28.70;79.20;;;;;;4944190;29;20090;-79
2022/06/28 11:25:24;;;;;;;4.95;1.00;;;29.00;79.00;;;;;;4944711;29;20043;-79
2022/06/28 11:27:57;;;;;;;3.85;0.90;;;29.40;78.90;;;;;;4927630;29;20035;-80
2022/06/28 11:30:27;;;;;;;5.18;0.80;;;29.50;78.00;;;;;;4943693;29;20094;-80
2022/06/28 11:32:55;;;;;;;3.85;1.30;;;29.10;77.60;;;;;;4927479;29;20031;-80
2022/06/28 11:35:23;;;;;;;;;;;28.70;78.10;;;;;;4948343;29;20218;-79
2022/06/28 11:37:58;;;;;;;6.53;1.00;;;28.60;77.80;;;;;;4944766;29;19949;-80
2022/06/28 11:40:43;;;;;;;3.50;0.50;;;28.30;78.10;;;;;;4915864;29;20047;-80
2022/06/28 11:43:12;;;;;;;4.28;1.00;;;28.30;78.50;;;;;;4943259;29;20036;-79
2022/06/28 11:45:48;;;;;;;3.30;1.10;;;28.60;78.80;;;;;;4937707;29;20052;-81
2022/06/28 11:48:19;;;;;;;4.00;0.68;;;28.70;78.40;;;;;;4946172;29;20039;-78
2022/06/28 11:50:51;;;;;;;2.22;0.57;;;28.70;77.50;;;;;;4950172;29;20098;-80
2022/06/28 11:53:18;;;;;;;2.35;0.68;;;28.40;77.70;;;;;;4944433;29;20102;-80
2022/06/28 11:55:44;;;;;;;3.92;0.60;;;28.60;78.40;;;;;;4943989;29;20059;-79
2022/06/28 11:58:25;;;;;;;3.13;0.60;;;29.10;76.90;;;;;;4910998;29;20028;-80
2022/06/28 12:01:03;;;;;;;5.03;0.70;;;29.60;75.40;;;;;;4918739;29;20095;-78
2022/06/28 12:03:29;;;;;;;3.08;0.60;;;30.00;75.50;;;;;;4924279;29;20395;-79
2022/06/28 12:05:57;;;;;;;3.15;0.63;;;29.80;74.50;;;;;;4907711;29;20337;-78
2022/06/28 12:09:01;;;;;;;2.65;0.60;;;29.40;75.00;;;;;;4922702;29;20213;-78
2022/06/28 12:11:35;;;;;;;3.72;0.70;;;28.80;76.00;;;;;;4924569;29;20091;-79
2022/06/28 12:14:17;;;;;;;3.00;0.70;;;28.30;77.50;;;;;;4924305;29;20075;-79
2022/06/28 12:16:50;;;;;;;2.60;0.70;;;27.90;78.00;;;;;;4933380;29;20050;-79
2022/06/28 12:19:25;;;;;;;2.80;0.60;;;27.80;78.20;;;;;;4917045;29;20163;-79
2022/06/28 12:22:12;;;;;;;2.10;0.75;;;28.30;77.70;;;;;;4936766;29;20096;-81
2022/06/28 12:24:46;;;;;;;4.38;0.80;;;28.60;76.60;;;;;;4927008;29;20039;-81
2022/06/28 12:27:14;;;;;;;3.67;0.80;;;28.80;76.40;;;;;;4926615;29;20163;-81
2022/06/28 12:29:41;;;;;;;2.92;0.70;;;28.80;76.50;;;;;;4943239;29;20039;-81
2022/06/28 12:32:08;;;;;;;5.72;1.20;;;28.80;75.50;;;;;;4942348;29;20048;-79
2022/06/28 12:34:35;;;;;;;3.42;0.93;;;28.50;76.20;;;;;;4926346;29;20079;-77
2022/06/28 12:37:02;;;;;;;3.05;0.70;;;28.00;76.60;;;;;;4937312;29;20033;-79
2022/06/28 12:39:28;;;;;;;3.38;0.70;;;28.00;77.00;;;;;;4940745;29;20095;-79
2022/06/28 12:41:54;;;;;;;2.60;0.60;;;28.10;77.50;;;;;;4943887;29;20023;-80
2022/06/28 12:44:20;;;;;;;2.92;0.63;;;28.90;75.80;;;;;;4947326;29;20040;-80
2022/06/28 12:46:46;;;;;;;4.07;0.70;;;29.00;75.00;;;;;;4946652;29;20082;-79
2022/06/28 12:49:12;;;;;;;1.55;0.60;;;29.00;75.40;;;;;;4947064;29;20019;-79
2022/06/28 12:51:38;;;;;;;1.58;0.57;;;28.90;75.90;;;;;;4922781;29;20032;-79
2022/06/28 12:54:05;;;;;;;1.73;0.50;;;29.00;74.00;;;;;;4927305;29;20074;-80
2022/06/28 12:56:31;;;;;;;3.83;0.80;;;29.30;74.20;;;;;;4916655;29;20032;-81
2022/06/28 12:58:58;;;;;;;3.67;0.60;;;29.60;72.70;;;;;;4940579;29;20024;-78
2022/06/28 13:01:29;;;;;;;2.70;0.70;;;29.70;72.30;;;;;;4932050;29;20028;-80
2022/06/28 13:03:55;;;;;;;3.40;0.50;;;30.30;72.40;;;;;;4929935;29;20054;-81
2022/06/28 13:06:21;;;;;;;2.40;0.70;;;30.90;71.50;;;;;;4919580;29;20028;-80
2022/06/28 13:08:47;;;;;;;1.33;0.45;;;31.50;70.10;;;;;;4910606;29;20118;-85
2022/06/28 13:11:13;;;;;;;3.78;0.70;;;31.70;69.00;;;;;;4927341;29;20052;-79
2022/06/28 13:13:39;;;;;;;2.67;0.52;;;32.00;68.80;;;;;;4906594;29;20321;-81
2022/06/28 13:16:06;;;;;;;2.13;0.60;;;32.00;68.60;;;;;;4925402;29;20052;-81
2022/06/28 13:18:32;;;;;;;3.88;0.57;;;31.90;68.30;;;;;;4895875;29;20027;-80
2022/06/28 13:20:58;;;;;;;3.40;0.70;;;31.80;68.20;;;;;;4926895;29;20032;-78
2022/06/28 13:23:24;;;;;;;2.92;0.65;;;31.20;68.20;;;;;;4911030;29;20031;-79
2022/06/28 13:25:53;;;;;;;4.60;0.57;;;31.10;68.70;;;;;;4927819;29;20126;-80
2022/06/28 13:28:20;;;;;;;2.78;0.40;;;31.70;68.10;;;;;;4910699;29;20366;-80
2022/06/28 13:30:46;;;;;;;4.28;0.63;;;32.60;66.80;;;;;;4910015;29;20044;-80
2022/06/28 13:33:13;;;;;;;4.32;0.82;;;33.00;65.00;;;;;;4910131;29;20047;-81
2022/06/28 13:35:43;;;;;;;3.67;0.60;;;33.20;64.90;;;;;;4910679;29;20254;-82
2022/06/28 13:38:11;;;;;;;2.05;0.40;;;34.20;62.30;;;;;;4894919;29;20079;-82
2022/06/28 13:40:37;;;;;;;2.85;0.50;;;35.50;60.50;;;;;;4927454;29;20326;-81
2022/06/28 13:43:32;;;;;;;2.97;0.45;;;36.10;59.60;;;;;;4926665;29;20144;-84
2022/06/28 13:45:49;;;;;;;3.35;0.43;;;36.30;58.70;;;;;;4913702;29;20115;-80
2022/06/28 13:48:15;;;;;;;4.10;0.73;;;36.90;58.00;;;;;;4927237;29;20036;-80
2022/06/28 13:50:42;;;;;;;1.75;0.43;;;36.30;58.00;;;;;;4895146;29;20039;-79
2022/06/28 13:53:08;;;;;;;1.90;0.40;;;35.40;57.80;;;;;;4902042;29;20031;-78
2022/06/28 13:55:33;;;;;;;1.92;0.50;;;34.10;59.50;;;;;;4926610;29;20602;-80
2022/06/28 13:57:59;;;;;;;1.25;0.30;;;34.40;60.20;;;;;;4926742;29;20338;-81
2022/06/28 14:00:25;;;;;;;3.42;0.40;;;35.30;59.30;;;;;;4926580;29;20334;-80
2022/06/28 14:02:51;;;;;;;2.53;0.55;;;35.10;59.00;;;;;;4934368;29;20059;-81
2022/06/28 14:05:16;;;;;;;1.48;0.40;;;34.60;59.10;;;;;;4928724;29;20078;-80
2022/06/28 14:07:44;;;;;;;2.63;0.40;;;34.20;59.40;;;;;;4946034;29;20087;-80
2022/06/28 14:10:11;;;;;;;2.28;0.50;;;34.60;60.30;;;;;;4928531;29;20099;-80
2022/06/28 14:12:37;;;;;;;3.40;0.60;;;35.10;59.10;;;;;;4929340;29;20051;-81
2022/06/28 14:15:07;;;;;;;3.20;0.40;;;35.20;57.70;;;;;;4934415;29;20035;-81
2022/06/28 14:17:37;;;;;;;0.82;0.45;;;35.30;57.70;;;;;;4926865;29;20028;-80
2022/06/28 14:20:03;;;;;;;1.23;0.47;;;36.30;57.30;;;;;;4926562;29;20184;-81
2022/06/28 14:22:29;;;;;;;2.75;0.50;;;36.90;56.20;;;;;;4926922;29;20039;-81
2022/06/28 14:24:54;;;;;;;3.33;0.40;;;37.00;55.80;;;;;;4926548;29;20067;-82
2022/06/28 14:27:20;;;;;;;3.03;0.57;;;37.30;56.10;;;;;;4909653;29;20344;-81
2022/06/28 14:29:46;;;;;;;1.23;0.40;;;37.80;55.20;;;;;;4912149;29;20194;-80
2022/06/28 14:32:12;;;;;;;3.00;0.40;;;37.10;54.90;;;;;;4944755;29;20341;-81
2022/06/28 14:34:38;;;;;;;1.88;0.57;;;36.60;55.60;;;;;;4945921;29;20026;-81
2022/06/28 14:37:05;;;;;;;2.80;0.40;;;36.60;55.80;;;;;;4945468;29;20064;-82
2022/06/28 14:39:31;;;;;;;2.35;0.32;;;37.30;55.80;;;;;;4945908;29;20036;-80
2022/06/28 14:41:56;;;;;;;2.35;0.52;;;36.50;54.70;;;;;;4945247;29;20038;-82
2022/06/28 14:44:22;;;;;;;3.97;0.70;;;36.00;56.00;;;;;;4928327;29;20036;-79
2022/06/28 14:46:48;;;;;;;1.20;0.40;;;36.40;56.30;;;;;;4930762;29;20307;-80
2022/06/28 14:49:15;;;;;;;2.67;0.60;;;37.20;55.20;;;;;;4926240;29;20019;-80
2022/06/28 14:51:42;;;;;;;2.70;0.73;;;36.90;54.90;;;;;;4942074;29;20042;-80
2022/06/28 14:54:08;;;;;;;1.33;0.60;;;36.10;55.70;;;;;;4945051;29;20030;-81
2022/06/28 14:56:34;;;;;;;1.83;0.68;;;35.00;56.40;;;;;;4945296;29;20059;-81
2022/06/28 14:59:00;;;;;;;1.27;0.50;;;34.50;57.30;;;;;;4944456;29;20027;-80
2022/06/28 15:01:35;;;;;;;1.38;0.50;;;34.10;57.80;;;;;;4941769;29;20318;-80
2022/06/28 15:04:01;;;;;;;1.58;0.40;;;33.10;59.30;;;;;;4907978;29;20112;-81
2022/06/28 15:06:28;;;;;;;2.28;0.40;;;33.00;59.40;;;;;;4910390;29;20090;-80
2022/06/28 15:08:56;;;;;;;1.48;0.57;;;32.80;59.50;;;;;;4944491;29;20042;-82
2022/06/28 15:11:22;;;;;;;1.58;0.60;;;32.80;59.60;;;;;;4927213;29;20039;-81
2022/06/28 15:13:48;;;;;;;1.25;0.40;;;33.20;59.50;;;;;;4945043;29;20035;-80
2022/06/28 15:16:14;;;;;;;1.88;0.43;;;33.50;59.20;;;;;;4941833;29;20048;-79
2022/06/28 15:18:40;;;;;;;1.52;0.68;;;33.90;58.00;;;;;;4911318;29;20020;-80
2022/06/28 15:30:51;;;;;;;2.97;0.85;;;33.50;59.00;;;;;;4908182;29;20091;-81
2022/06/28 15:32:05;;;;;;;1.60;0.50;;;31.90;61.00;;;;;;4925543;29;20039;-80
2022/06/28 15:34:31;;;;;;;2.55;0.77;;;31.90;61.90;;;;;;4943547;29;20023;-80
2022/06/28 15:36:57;;;;;;;2.20;0.50;;;31.60;61.80;;;;;;4944171;29;20067;-80
2022/06/28 15:39:22;;;;;;;1.40;0.50;;;31.60;61.70;;;;;;4943824;29;20023;-80
2022/06/28 15:41:48;;;;;;;1.42;0.50;;;31.40;62.40;;;;;;4927102;29;20219;-79
2022/06/28 15:44:14;;;;;;;1.30;0.70;;;31.30;63.00;;;;;;4926635;29;20027;-79
2022/06/28 15:46:41;;;;;;;2.60;0.70;;;31.00;63.60;;;;;;4943691;29;20111;-79
2022/06/28 15:49:07;;;;;;;3.03;0.85;;;30.90;64.10;;;;;;4942219;29;20040;-79
2022/06/28 15:51:33;;;;;;;2.55;0.75;;;30.70;64.20;;;;;;4926966;29;20045;-80
2022/06/28 15:53:58;;;;;;;2.03;0.75;;;30.60;64.50;;;;;;4944025;29;20027;-79
2022/06/28 15:56:24;;;;;;;3.40;0.85;;;30.30;65.00;;;;;;4911158;29;20241;-82
2022/06/28 15:58:51;;;;;;;2.42;1.15;;;29.90;65.20;;;;;;4944122;29;20051;-80
2022/06/28 16:01:16;;;;;;;2.38;0.80;;;29.50;65.90;;;;;;4910021;29;20044;-81
2022/06/28 16:03:42;;;;;;;1.77;0.88;;;29.40;66.70;;;;;;4909454;29;20392;-81
2022/06/28 16:06:09;;;;;;;2.20;0.85;;;29.20;66.60;;;;;;4925359;29;20103;-80
2022/06/28 16:08:35;;;;;;;3.45;1.02;;;28.90;67.50;;;;;;4909725;29;20046;-82
2022/06/28 16:11:01;;;;;;;4.05;1.33;;;28.60;68.50;;;;;;4927139;29;20034;-82
2022/06/28 16:13:27;;;;;;;1.95;1.10;;;28.60;69.00;;;;;;4910755;29;20062;-79
2022/06/28 16:15:53;;;;;;;3.28;1.33;;;28.40;69.00;;;;;;4922662;29;20036;-81
2022/06/28 16:18:24;;;;;;;3.50;1.45;;;28.30;69.20;;;;;;4907468;29;20056;-79
2022/06/28 16:20:53;;;;;;;3.45;1.10;;;28.10;69.30;;;;;;4937061;29;20031;-79
2022/06/28 16:23:19;;;;;;;3.65;1.20;;;28.20;69.80;;;;;;4903371;29;20036;-80
2022/06/28 16:25:45;;;;;;;2.10;0.90;;;28.30;69.80;;;;;;4938102;29;20055;-80
2022/06/28 16:28:11;;;;;;;2.22;1.00;;;28.30;69.90;;;;;;4932121;29;20034;-79
2022/06/28 16:30:37;;;;;;;3.60;1.08;;;28.10;70.20;;;;;;4903021;29;20024;-80
2022/06/28 16:33:05;;;;;;;2.88;0.88;;;27.70;70.80;;;;;;4932185;29;20023;-80
2022/06/28 16:35:31;;;;;;;2.72;1.02;;;27.50;71.50;;;;;;4940409;29;20046;-80
2022/06/28 16:37:58;;;;;;;2.67;1.05;;;27.50;72.00;;;;;;4926958;29;20031;-81
2022/06/28 16:40:25;;;;;;;2.45;1.00;;;27.50;72.00;;;;;;4910345;29;20178;-80
2022/06/28 16:42:51;;;;;;;2.30;1.00;;;27.60;72.20;;;;;;4926891;29;20034;-80
2022/06/28 16:45:17;;;;;;;2.35;1.00;;;27.50;72.40;;;;;;4942275;29;20318;-81
2022/06/28 16:47:45;;;;;;;1.98;0.95;;;27.60;72.70;;;;;;4926835;29;20030;-81
2022/06/28 16:50:15;;;;;;;3.33;1.10;;;27.80;72.40;;;;;;4924529;29;20147;-80
2022/06/28 16:52:40;;;;;;;2.28;1.02;;;28.00;71.80;;;;;;4925052;29;20046;-81
2022/06/28 16:55:09;;;;;;;2.15;0.90;;;28.50;70.80;;;;;;4943407;29;20062;-80
2022/06/28 16:57:38;;;;;;;2.40;1.20;;;29.20;69.50;;;;;;4927214;29;20031;-80
2022/06/28 17:00:06;;;;;;;2.97;1.00;;;29.60;68.40;;;;;;4942563;29;20050;-82
2022/06/28 17:02:32;;;;;;;4.50;1.17;;;29.70;68.40;;;;;;4902758;29;20096;-81
2022/06/28 17:04:57;;;;;;;2.58;1.10;;;29.30;68.60;;;;;;4944718;29;20325;-78
2022/06/28 17:07:23;;;;;;;7.88;1.30;;;29.10;69.10;;;;;;4921824;29;20399;-79
2022/06/28 17:09:57;;;;;;;3.80;1.00;;;29.20;69.30;;;;;;4943677;29;20087;-81
2022/06/28 17:12:32;;;;;;;2.13;1.13;;;29.30;68.40;;;;;;4942988;29;20043;-80
2022/06/28 17:14:58;;;;;;;3.33;1.20;;;29.20;69.00;;;;;;4943482;29;20075;-80
2022/06/28 17:17:24;;;;;;;3.70;0.93;;;29.60;68.90;;;;;;4925014;29;20530;-80
2022/06/28 17:19:51;;;;;;;2.45;1.10;;;29.80;68.10;;;;;;4943660;29;20046;-80
2022/06/28 17:22:19;;;;;;;2.20;0.90;;;29.80;66.90;;;;;;4936963;29;20103;-79
2022/06/28 17:24:45;;;;;;;;;;;30.50;67.00;;;;;;4907834;29;20060;-80
2022/06/28 17:27:11;;;;;;;2.45;0.93;;;31.90;65.00;;;;;;4906486;29;19922;-81
2022/06/28 17:29:40;;;;;;;3.67;1.30;;;33.00;62.90;;;;;;4926369;29;20040;-82
2022/06/28 17:32:06;;;;;;;3.78;1.38;;;33.70;61.70;;;;;;4932301;29;20358;-78
2022/06/28 17:34:33;;;;;;;4.80;1.30;;;34.20;60.60;;;;;;4920479;29;20074;-79
2022/06/28 17:36:59;;;;;;;2.58;1.33;;;33.80;60.20;;;;;;4937960;29;20309;-80
2022/06/28 17:39:26;;;;;;;2.45;1.30;;;33.10;60.40;;;;;;4918617;29;20036;-81
2022/06/28 17:41:53;;;;;;;5.30;1.42;;;33.00;60.90;;;;;;4935103;29;20091;-80
2022/06/28 17:44:20;;;;;;;2.42;1.30;;;33.00;61.00;;;;;;4918679;29;20040;-80
2022/06/28 17:46:49;;;;;;;2.57;1.27;;;33.50;61.10;;;;;;4937202;28;20099;-80
2022/06/28 17:49:19;;;;;;;2.00;1.10;;;33.70;60.50;;;;;;4929439;29;20327;-79
2022/06/28 17:51:46;;;;;;;2.97;1.20;;;33.30;60.60;;;;;;4938266;29;20036;-79
2022/06/28 17:54:13;;;;;;;2.67;1.33;;;32.40;62.20;;;;;;4939772;29;20067;-78
2022/06/28 17:56:39;;;;;;;3.35;1.08;;;31.80;63.00;;;;;;4938023;29;20419;-78
2022/06/28 17:59:05;;;;;;;4.95;1.50;;;30.90;64.40;;;;;;4927045;29;20131;-80
2022/06/28 18:01:31;;;;;;;5.25;1.30;;;30.00;65.90;;;;;;4928582;29;20040;-81
2022/06/28 18:03:57;;;;;;;2.58;1.10;;;29.20;68.20;;;;;;4946195;29;20110;-82
2022/06/28 18:06:29;;;;;;;4.55;1.40;;;28.80;69.70;;;;;;4927085;29;20079;-80
2022/06/28 18:08:55;;;;;;;3.15;1.27;;;28.30;70.40;;;;;;4936114;29;20127;-81